To NAV CANADA Home Page Login to a new session Search on AWWS site Feedback and Comments Disclaimer Vers la page française équivalente Tips FAQ What's new on the site To the Forecasts and Observations / NOTAM section To "File a Flight Plan" website Publications and other links Update of the User's profile FIC Telephone Numbers My Weather Data Folder Route Weather Data Regional Weather Data Local Weather Data To the Forecasts and Observations / NOTAM section
Request Generated 07/03/2015 at 12:18:02 UTC . Weather information available at that time is displayed.

METAR/TAF

PRINCE ALBERT/PRINCE ALBERT (GLASS FIELD)/SK    

METAR CYPA 031200Z 00000KT 4SM BR FEW120 BKN250 13/12 A2991 RMK
FU2CI3 SLP131=
METAR CYPA 031100Z 21003KT 6SM BR BKN250 12/11 A2991 RMK CI5 SLP131=
SPECI CYPA 031037Z 00000KT 6SM BR FEW080 SCT110 BKN250 12/12 A2991
RMK ACC1FU2CI2 SLP131=
METAR CYPA 031000Z 27002KT 8SM FEW080 SCT110 BKN250 13/12 A2991 RMK
ACC1FU3CI2 BR SLP132=

TAF CYPA 030638Z 0307/0319 VRB03KT P6SM SCT090 TEMPO 0307/0315 4SM FU
PROB30 0308/0314 1SM BR
FM031500 21007KT P6SM FEW200
RMK NXT FCST BY 031300Z=
Your time UTC time
Weather data provided by Environment Canada and NAV CANADA